Time;durP1;ratioP1;P1;durP2;ratioP2;P2;SDS_P1;SDS_P2;PMS_P1;PMS_P2;Temp;Humidity;BMP_temperature;BMP_pressure;BME280_temperature;BME280_humidity;BME280_pressure;Samples;Min_cycle;Max_cycle;Signal;HPM_P1;HPM_P2
2021/12/29 00:00:25;;;;;;;9.18;1.83;;;19.80;56.00;;;;;;4494190;31;20128;-73
2021/12/29 00:02:52;;;;;;;9.25;1.52;;;19.80;56.10;;;;;;4495072;31;20175;-74
2021/12/29 00:05:19;;;;;;;7.72;1.75;;;19.80;56.10;;;;;;4493529;31;20188;-74
2021/12/29 00:07:45;;;;;;;7.22;1.73;;;19.80;56.10;;;;;;4494863;31;20152;-74
2021/12/29 00:10:12;;;;;;;6.03;1.48;;;19.70;56.00;;;;;;4480675;31;20566;-73
2021/12/29 00:12:41;;;;;;;7.03;1.58;;;19.70;56.00;;;;;;4494107;31;20124;-73
2021/12/29 00:15:10;;;;;;;5.82;1.67;;;19.70;56.00;;;;;;4493977;32;20129;-73
2021/12/29 00:17:36;;;;;;;8.23;1.67;;;19.70;56.10;;;;;;4479997;32;20144;-74
2021/12/29 00:20:03;;;;;;;6.75;1.58;;;19.70;56.10;;;;;;4480417;32;20139;-73
2021/12/29 00:22:29;;;;;;;10.65;2.03;;;19.60;56.10;;;;;;4480354;32;20185;-74
2021/12/29 00:24:55;;;;;;;5.13;1.50;;;19.60;56.00;;;;;;4493175;32;20116;-74
2021/12/29 00:27:21;;;;;;;5.38;1.52;;;19.60;56.10;;;;;;4493633;32;20140;-73
2021/12/29 00:29:47;;;;;;;7.30;1.77;;;19.60;56.10;;;;;;4493158;32;20210;-74
2021/12/29 00:32:14;;;;;;;6.00;1.30;;;19.60;56.10;;;;;;4493744;32;20124;-73
2021/12/29 00:34:39;;;;;;;6.03;1.48;;;19.60;56.10;;;;;;4492984;32;20159;-73
2021/12/29 00:37:05;;;;;;;5.38;1.17;;;19.60;56.10;;;;;;4494616;32;20140;-73
2021/12/29 00:39:31;;;;;;;3.22;1.35;;;19.60;56.20;;;;;;4494105;32;20651;-73
2021/12/29 00:41:57;;;;;;;7.75;1.60;;;19.50;56.10;;;;;;4480079;32;20140;-73
2021/12/29 00:44:23;;;;;;;5.65;1.75;;;19.50;56.10;;;;;;4480409;32;20120;-74
2021/12/29 00:46:53;;;;;;;6.22;1.50;;;19.60;56.20;;;;;;4493001;32;20120;-74
2021/12/29 00:49:19;;;;;;;5.18;1.52;;;19.50;56.20;;;;;;4495969;31;20136;-74
2021/12/29 00:51:47;;;;;;;4.95;1.80;;;19.50;56.20;;;;;;4495962;31;20155;-74
2021/12/29 00:54:13;;;;;;;6.40;1.30;;;19.50;56.20;;;;;;4497599;31;20142;-73
2021/12/29 00:56:39;;;;;;;5.55;1.52;;;19.50;56.30;;;;;;4497180;31;20581;-73
2021/12/29 00:59:05;;;;;;;5.20;1.40;;;19.50;56.20;;;;;;4497159;31;20121;-73
2021/12/29 01:01:31;;;;;;;4.35;1.23;;;19.50;56.20;;;;;;4497660;31;20133;-73
2021/12/29 01:03:57;;;;;;;6.43;1.40;;;19.50;56.20;;;;;;4495719;31;20145;-74
2021/12/29 01:06:23;;;;;;;4.40;1.10;;;19.50;56.20;;;;;;4496857;31;20116;-74
2021/12/29 01:08:49;;;;;;;5.97;1.48;;;19.40;56.20;;;;;;4495664;31;20140;-74
2021/12/29 01:11:16;;;;;;;4.97;1.23;;;19.40;56.20;;;;;;4497405;31;20221;-73
2021/12/29 01:13:47;;;;;;;5.78;1.20;;;19.40;56.30;;;;;;4495743;31;20190;-73
2021/12/29 01:19:06;;;;;;;4.95;1.45;;;19.40;56.30;;;;;;4497685;31;20136;-73
2021/12/29 01:21:33;;;;;;;4.32;1.20;;;19.40;56.40;;;;;;4496419;31;20238;-73
2021/12/29 01:24:00;;;;;;;3.78;1.05;;;19.40;56.30;;;;;;4496593;31;20116;-73
2021/12/29 01:26:26;;;;;;;4.53;1.25;;;19.30;56.30;;;;;;4495636;31;20160;-74
2021/12/29 01:28:52;;;;;;;4.03;0.95;;;19.40;56.40;;;;;;4497227;31;20278;-73
2021/12/29 01:31:20;;;;;;;3.50;1.42;;;19.30;57.20;;;;;;4495703;31;20156;-74
2021/12/29 01:33:46;;;;;;;4.53;1.30;;;19.30;56.40;;;;;;4496699;31;20137;-73
2021/12/29 01:36:12;;;;;;;3.45;1.30;;;19.30;56.30;;;;;;4495910;31;20135;-73
2021/12/29 01:38:38;;;;;;;4.53;1.00;;;19.30;56.30;;;;;;4496540;31;20139;-73
2021/12/29 01:41:04;;;;;;;5.07;1.48;;;19.30;56.30;;;;;;4497285;31;20128;-73
2021/12/29 01:43:30;;;;;;;5.72;1.35;;;19.30;56.30;;;;;;4495145;31;20205;-73
2021/12/29 01:45:56;;;;;;;4.75;1.17;;;19.30;56.40;;;;;;4496816;31;20128;-73
2021/12/29 01:48:22;;;;;;;2.55;1.13;;;19.20;56.40;;;;;;4496586;31;20301;-73
2021/12/29 01:50:51;;;;;;;3.55;1.00;;;19.20;56.40;;;;;;4496474;31;20267;-73
2021/12/29 01:53:24;;;;;;;3.47;1.00;;;19.20;56.40;;;;;;4482980;31;20581;-73
2021/12/29 01:55:51;;;;;;;;;;;19.20;56.40;;;;;;4507610;31;20266;-74
2021/12/29 01:58:17;;;;;;;3.47;0.90;;;19.20;56.40;;;;;;4513064;31;20063;-73
2021/12/29 02:00:43;;;;;;;3.50;0.95;;;19.20;56.40;;;;;;4510944;31;20124;-73
2021/12/29 02:03:09;;;;;;;2.25;0.82;;;19.20;57.30;;;;;;4512187;31;20128;-73
2021/12/29 02:05:37;;;;;;;3.50;1.23;;;19.20;56.40;;;;;;4512218;31;20151;-73
2021/12/29 02:08:05;;;;;;;2.88;1.00;;;19.20;56.50;;;;;;4512056;31;20143;-73
2021/12/29 02:10:36;;;;;;;4.35;0.93;;;19.20;56.40;;;;;;4485066;31;20136;-73
2021/12/29 02:13:02;;;;;;;3.15;1.00;;;19.20;56.40;;;;;;4497948;31;20128;-73
2021/12/29 02:15:28;;;;;;;3.72;1.10;;;19.20;56.50;;;;;;4512412;31;20151;-73
2021/12/29 02:17:54;;;;;;;3.03;0.85;;;19.20;56.50;;;;;;4511722;31;20124;-74
2021/12/29 02:20:21;;;;;;;3.33;0.90;;;19.10;56.60;;;;;;4497527;31;20113;-73
2021/12/29 02:22:54;;;;;;;3.67;1.00;;;19.10;56.40;;;;;;4512070;31;20140;-74
2021/12/29 02:25:33;;;;;;;4.03;0.75;;;19.10;56.50;;;;;;4510475;31;20245;-74
2021/12/29 02:28:02;;;;;;;2.00;0.80;;;19.10;56.50;;;;;;4511755;31;20128;-74
2021/12/29 02:30:28;;;;;;;3.92;1.00;;;19.10;56.50;;;;;;4511101;31;20140;-73
2021/12/29 02:32:55;;;;;;;3.20;1.05;;;19.10;56.60;;;;;;4511415;31;20120;-73
2021/12/29 02:35:25;;;;;;;1.83;0.88;;;19.10;56.60;;;;;;4497803;31;20131;-73
2021/12/29 02:37:51;;;;;;;2.72;0.90;;;19.10;56.70;;;;;;4510673;31;20128;-73
2021/12/29 02:40:17;;;;;;;3.42;1.10;;;19.10;56.70;;;;;;4511846;31;20169;-73
2021/12/29 02:42:43;;;;;;;2.47;0.85;;;19.00;56.60;;;;;;4510158;31;20142;-73
2021/12/29 02:45:13;;;;;;;2.15;0.70;;;19.00;56.60;;;;;;4498407;31;20132;-73
2021/12/29 02:47:39;;;;;;;2.67;0.80;;;19.00;56.70;;;;;;4510115;31;20147;-73
2021/12/29 02:50:06;;;;;;;3.38;0.73;;;19.00;56.70;;;;;;4511019;31;20135;-74
2021/12/29 02:52:32;;;;;;;1.98;0.90;;;19.00;56.70;;;;;;4511216;31;20126;-74
2021/12/29 02:54:58;;;;;;;2.20;0.60;;;19.00;56.70;;;;;;4511430;31;20116;-73
2021/12/29 02:57:23;;;;;;;2.08;0.70;;;19.00;56.70;;;;;;4511555;31;20124;-73
2021/12/29 02:59:49;;;;;;;2.75;0.57;;;19.00;56.60;;;;;;4483810;31;20143;-73
2021/12/29 03:02:15;;;;;;;2.05;1.02;;;19.00;56.70;;;;;;4484586;31;20694;-73
2021/12/29 03:04:41;;;;;;;1.65;0.70;;;19.00;56.60;;;;;;4510864;31;20182;-73
2021/12/29 03:07:07;;;;;;;1.92;0.63;;;18.90;57.50;;;;;;4512031;31;20186;-73
2021/12/29 03:09:34;;;;;;;1.55;0.65;;;18.90;56.60;;;;;;4483395;31;20278;-73
2021/12/29 03:11:59;;;;;;;3.10;0.70;;;18.90;56.60;;;;;;4509908;31;20140;-73
2021/12/29 03:14:26;;;;;;;2.33;0.90;;;18.90;56.60;;;;;;4510197;31;20155;-73
2021/12/29 03:16:52;;;;;;;3.42;0.90;;;19.00;56.70;;;;;;4510879;31;20543;-73
2021/12/29 03:19:19;;;;;;;2.05;0.85;;;18.90;56.70;;;;;;4511621;31;20274;-73
2021/12/29 03:21:45;;;;;;;3.72;0.70;;;19.00;56.70;;;;;;4510376;31;20151;-73
2021/12/29 03:24:12;;;;;;;2.60;0.65;;;18.90;56.70;;;;;;4511573;31;20140;-73
2021/12/29 03:26:38;;;;;;;3.83;0.73;;;18.90;56.70;;;;;;4509424;31;20284;-73
2021/12/29 03:29:06;;;;;;;2.03;0.80;;;18.90;56.70;;;;;;4509980;31;20193;-73
2021/12/29 03:31:36;;;;;;;2.30;0.80;;;18.90;56.80;;;;;;4509931;31;20262;-73
2021/12/29 03:34:02;;;;;;;3.13;0.80;;;18.90;56.70;;;;;;4509649;31;20128;-73
2021/12/29 03:36:29;;;;;;;1.40;0.75;;;18.90;56.80;;;;;;4510108;31;20134;-73
2021/12/29 03:38:56;;;;;;;2.17;0.63;;;18.90;56.80;;;;;;4496303;31;20263;-73
2021/12/29 03:41:24;;;;;;;1.98;0.70;;;18.80;56.70;;;;;;4510395;31;20493;-73
2021/12/29 03:43:51;;;;;;;2.13;0.60;;;18.80;56.70;;;;;;4496650;31;20336;-73
2021/12/29 03:46:19;;;;;;;1.00;0.50;;;18.80;56.70;;;;;;4509549;31;20133;-73
2021/12/29 03:48:47;;;;;;;1.67;0.60;;;18.80;56.70;;;;;;4509890;31;20136;-73
2021/12/29 03:51:13;;;;;;;3.30;0.68;;;18.80;56.70;;;;;;4509250;31;20222;-73
2021/12/29 03:53:40;;;;;;;1.27;0.68;;;18.80;56.70;;;;;;4497210;31;20173;-73
2021/12/29 03:56:08;;;;;;;1.30;0.45;;;18.80;57.60;;;;;;4509375;31;20620;-74
2021/12/29 03:58:35;;;;;;;3.38;0.60;;;18.80;56.60;;;;;;4510913;31;20189;-74
2021/12/29 04:01:09;;;;;;;2.20;0.60;;;18.80;56.70;;;;;;4510688;31;20193;-74
2021/12/29 04:03:36;;;;;;;1.23;0.50;;;18.80;56.70;;;;;;4509142;31;20610;-73
2021/12/29 04:06:02;;;;;;;3.65;0.70;;;18.70;56.60;;;;;;4511204;31;20143;-73
2021/12/29 04:08:28;;;;;;;1.98;0.60;;;18.80;56.70;;;;;;4508886;31;20127;-73
2021/12/29 04:10:55;;;;;;;1.27;0.50;;;18.70;56.60;;;;;;4510230;31;20120;-73
2021/12/29 04:13:21;;;;;;;1.63;0.50;;;18.70;56.60;;;;;;4510354;31;20151;-73
2021/12/29 04:15:47;;;;;;;1.25;0.57;;;18.70;56.60;;;;;;4509541;31;20128;-73
2021/12/29 04:18:26;;;;;;;2.05;0.60;;;18.80;57.60;;;;;;4509581;31;20577;-73
2021/12/29 04:21:01;;;;;;;1.52;0.57;;;18.70;56.80;;;;;;4510208;31;20186;-74
2021/12/29 04:23:30;;;;;;;1.30;0.80;;;18.70;56.70;;;;;;4498022;31;20679;-73
2021/12/29 04:25:58;;;;;;;2.00;0.47;;;18.70;56.70;;;;;;4512359;31;20124;-74
2021/12/29 04:28:26;;;;;;;1.55;0.40;;;18.70;56.70;;;;;;4513188;31;20144;-74
2021/12/29 04:31:08;;;;;;;1.52;0.60;;;18.70;56.70;;;;;;4513116;31;20237;-74
2021/12/29 04:33:36;;;;;;;1.15;0.50;;;18.70;56.70;;;;;;4512173;31;20155;-73
2021/12/29 04:36:05;;;;;;;0.73;0.43;;;18.70;57.60;;;;;;4513226;31;20251;-73
2021/12/29 04:38:31;;;;;;;1.20;0.70;;;18.60;56.60;;;;;;4511800;31;20368;-73
2021/12/29 04:40:57;;;;;;;3.63;0.70;;;18.70;56.70;;;;;;4513218;31;20272;-73
2021/12/29 04:43:24;;;;;;;0.88;0.40;;;18.60;56.70;;;;;;4498984;31;20259;-73
2021/12/29 04:45:51;;;;;;;1.90;0.55;;;18.60;56.60;;;;;;4513302;31;20132;-73
2021/12/29 04:48:18;;;;;;;3.20;0.50;;;18.60;56.60;;;;;;4512411;31;20258;-73
2021/12/29 04:51:02;;;;;;;1.30;0.50;;;18.60;56.60;;;;;;4512986;31;20136;-73
2021/12/29 04:53:28;;;;;;;1.95;0.40;;;18.60;56.60;;;;;;4513049;31;20144;-73
2021/12/29 04:55:55;;;;;;;1.27;0.57;;;18.60;56.60;;;;;;4511923;31;20139;-74
2021/12/29 04:58:21;;;;;;;1.00;0.40;;;18.60;56.60;;;;;;4513698;31;20124;-73
2021/12/29 05:00:50;;;;;;;1.42;0.57;;;18.60;56.60;;;;;;4511876;31;20139;-73
2021/12/29 05:03:16;;;;;;;1.65;0.68;;;18.60;56.60;;;;;;4512313;31;20143;-73
2021/12/29 05:08:24;;;;;;;1.42;0.60;;;18.60;56.60;;;;;;4512232;31;20266;-73
2021/12/29 05:08:43;;;;;;;1.10;0.30;;;18.60;56.60;;;;;;4511761;31;20132;-73
2021/12/29 05:11:13;;;;;;;0.80;0.45;;;18.60;56.60;;;;;;4512632;31;20262;-73
2021/12/29 05:13:41;;;;;;;1.50;0.50;;;18.60;56.60;;;;;;4511685;31;20611;-73
2021/12/29 05:16:07;;;;;;;1.05;0.43;;;18.60;56.60;;;;;;4512020;31;20186;-73
2021/12/29 05:18:36;;;;;;;1.75;0.50;;;18.60;56.60;;;;;;4499024;31;20692;-73
2021/12/29 05:21:04;;;;;;;1.23;0.57;;;18.50;56.50;;;;;;4511581;31;20640;-74
2021/12/29 05:23:30;;;;;;;0.43;0.32;;;18.60;56.60;;;;;;4513597;31;20124;-73
2021/12/29 05:25:56;;;;;;;2.50;0.50;;;18.50;56.50;;;;;;4497855;31;20124;-74
2021/12/29 05:28:23;;;;;;;1.92;0.40;;;18.50;56.50;;;;;;4513410;31;20139;-73
2021/12/29 05:30:50;;;;;;;0.82;0.50;;;18.50;56.50;;;;;;4498483;31;20243;-73
2021/12/29 05:33:16;;;;;;;1.65;0.43;;;18.50;56.50;;;;;;4485455;31;20600;-73
2021/12/29 05:35:43;;;;;;;1.17;0.52;;;18.50;56.50;;;;;;4498282;31;20355;-73
2021/12/29 05:38:09;;;;;;;0.98;0.50;;;18.50;56.50;;;;;;4511209;31;20124;-73
2021/12/29 05:40:36;;;;;;;0.80;0.50;;;18.50;57.40;;;;;;4512143;31;20144;-74
2021/12/29 05:43:02;;;;;;;1.02;0.40;;;18.50;56.50;;;;;;4512023;31;20179;-74
2021/12/29 05:45:28;;;;;;;0.52;0.50;;;18.50;56.50;;;;;;4513200;31;20131;-73
2021/12/29 05:47:55;;;;;;;1.35;0.52;;;18.50;56.50;;;;;;4497860;31;20205;-74
2021/12/29 05:50:23;;;;;;;1.13;0.40;;;18.50;56.50;;;;;;4511584;31;20229;-73
2021/12/29 05:52:50;;;;;;;0.65;0.32;;;18.50;57.40;;;;;;4498371;31;20132;-73
2021/12/29 05:55:16;;;;;;;1.20;0.40;;;18.50;56.50;;;;;;4498128;31;20136;-73
2021/12/29 05:57:43;;;;;;;1.17;0.30;;;18.50;56.50;;;;;;4498529;31;20144;-73
2021/12/29 06:00:12;;;;;;;1.05;0.40;;;18.50;56.50;;;;;;4511865;31;20132;-73
2021/12/29 06:02:38;;;;;;;1.55;0.60;;;18.50;56.50;;;;;;4513021;31;20146;-73
2021/12/29 06:05:06;;;;;;;0.75;0.40;;;18.50;56.50;;;;;;4510775;31;20143;-73
2021/12/29 06:07:33;;;;;;;1.10;0.50;;;18.50;56.40;;;;;;4511314;31;20120;-73
2021/12/29 06:10:00;;;;;;;0.38;0.20;;;18.40;56.40;;;;;;4498081;31;20601;-73
2021/12/29 06:12:26;;;;;;;1.13;0.43;;;18.50;57.40;;;;;;4497823;31;20132;-73
2021/12/29 06:14:51;;;;;;;0.50;0.30;;;18.50;56.40;;;;;;4498242;31;20128;-73
2021/12/29 06:17:20;;;;;;;0.70;0.30;;;18.40;56.40;;;;;;4510780;31;20473;-72
2021/12/29 06:19:46;;;;;;;0.73;0.40;;;18.40;56.40;;;;;;4512242;31;20688;-73
2021/12/29 06:22:13;;;;;;;0.52;0.30;;;18.40;56.40;;;;;;4511770;31;20112;-73
2021/12/29 06:24:42;;;;;;;2.47;0.90;;;18.40;56.40;;;;;;4512145;31;20112;-73
2021/12/29 06:27:09;;;;;;;0.70;0.40;;;18.40;56.40;;;;;;4510947;31;20116;-73
2021/12/29 06:29:36;;;;;;;1.55;0.32;;;18.40;56.40;;;;;;4510822;31;20174;-74
2021/12/29 06:32:03;;;;;;;1.42;0.38;;;18.40;56.40;;;;;;4511402;31;20510;-73
2021/12/29 06:34:30;;;;;;;0.30;0.20;;;18.40;56.40;;;;;;4510402;31;20139;-73
2021/12/29 06:36:58;;;;;;;1.85;0.95;;;18.40;56.40;;;;;;4511137;31;20138;-74
2021/12/29 06:39:24;;;;;;;1.08;0.45;;;18.40;56.40;;;;;;4511697;31;20152;-72
2021/12/29 06:41:51;;;;;;;0.82;0.38;;;18.40;56.50;;;;;;4511595;31;20147;-73
2021/12/29 06:44:17;;;;;;;1.67;0.40;;;18.40;56.40;;;;;;4511027;31;20665;-73
2021/12/29 06:46:43;;;;;;;0.50;0.22;;;18.40;56.40;;;;;;4509660;31;20177;-73
2021/12/29 06:49:09;;;;;;;1.42;0.50;;;18.40;56.50;;;;;;4510984;31;20294;-73
2021/12/29 06:51:34;;;;;;;0.68;0.30;;;18.40;56.50;;;;;;4510195;31;20175;-73
2021/12/29 06:54:00;;;;;;;1.05;0.40;;;18.30;56.40;;;;;;4497596;31;20116;-73
2021/12/29 06:56:27;;;;;;;1.73;0.40;;;18.30;56.50;;;;;;4510315;31;20194;-72
2021/12/29 06:58:52;;;;;;;0.75;0.30;;;18.30;56.50;;;;;;4510567;31;20132;-72
2021/12/29 07:01:18;;;;;;;1.23;0.43;;;18.30;56.40;;;;;;4510743;31;20131;-73
2021/12/29 07:03:44;;;;;;;0.90;0.40;;;18.30;56.50;;;;;;4497011;31;20120;-73
2021/12/29 07:06:10;;;;;;;1.25;0.47;;;18.30;56.50;;;;;;4511787;31;20124;-72
2021/12/29 07:08:37;;;;;;;1.20;0.50;;;18.30;56.50;;;;;;4496761;31;20143;-73
2021/12/29 07:11:03;;;;;;;0.57;0.40;;;18.30;56.50;;;;;;4510712;31;20139;-73
2021/12/29 07:13:31;;;;;;;0.77;0.30;;;18.30;56.50;;;;;;4510032;31;20144;-73
2021/12/29 07:15:56;;;;;;;0.38;0.20;;;18.30;56.50;;;;;;4511254;31;20572;-73
2021/12/29 07:18:22;;;;;;;0.80;0.32;;;18.30;56.50;;;;;;4497150;31;20212;-73
2021/12/29 07:20:48;;;;;;;0.60;0.30;;;18.30;56.50;;;;;;4483514;31;20572;-73
2021/12/29 07:23:14;;;;;;;0.80;0.40;;;18.20;56.40;;;;;;4497122;31;20500;-73
2021/12/29 07:25:40;;;;;;;1.15;0.32;;;18.20;56.50;;;;;;4496383;31;20120;-69
2021/12/29 07:28:06;;;;;;;3.03;1.10;;;18.20;56.70;;;;;;4510236;31;20124;-69
2021/12/29 07:30:32;;;;;;;2.08;1.75;;;18.20;56.60;;;;;;4496276;31;20538;-69
2021/12/29 07:32:58;;;;;;;2.75;1.83;;;18.20;56.40;;;;;;4511006;31;20274;-69
2021/12/29 07:35:24;;;;;;;4.10;1.77;;;18.20;56.10;;;;;;4496779;31;20116;-71
2021/12/29 07:37:50;;;;;;;3.75;1.70;;;18.10;56.00;;;;;;4509606;31;20143;-71
2021/12/29 07:40:16;;;;;;;3.50;1.90;;;18.10;56.60;;;;;;4483758;31;20610;-71
2021/12/29 07:42:44;;;;;;;4.07;1.65;;;18.10;57.10;;;;;;4496227;31;20608;-71
2021/12/29 07:45:11;;;;;;;3.33;1.80;;;18.10;57.10;;;;;;4510092;31;20205;-71
2021/12/29 07:47:40;;;;;;;2.90;1.60;;;18.10;57.10;;;;;;4510224;31;20124;-71
2021/12/29 07:50:07;;;;;;;2.60;1.60;;;18.10;57.40;;;;;;4509747;31;20233;-70
2021/12/29 07:52:33;;;;;;;3.08;1.40;;;18.10;57.40;;;;;;4483288;31;20132;-71
2021/12/29 07:54:58;;;;;;;2.63;1.30;;;18.10;57.60;;;;;;4509486;31;20112;-71
2021/12/29 07:57:24;;;;;;;4.53;1.38;;;18.10;57.70;;;;;;4511217;31;20124;-70
2021/12/29 07:59:50;;;;;;;3.60;1.40;;;18.10;57.80;;;;;;4509173;31;20128;-70
2021/12/29 08:02:19;;;;;;;5.95;1.20;;;18.20;58.10;;;;;;4509880;31;20209;-69
2021/12/29 08:04:47;;;;;;;5.13;1.42;;;18.10;58.10;;;;;;4510220;31;20198;-70
2021/12/29 08:07:14;;;;;;;2.05;1.20;;;18.10;58.30;;;;;;4509563;31;20269;-70
2021/12/29 08:09:40;;;;;;;2.13;1.15;;;18.10;58.40;;;;;;4496465;31;20180;-69
2021/12/29 08:12:06;;;;;;;2.67;1.00;;;18.10;58.50;;;;;;4509015;31;20132;-68
2021/12/29 08:14:32;;;;;;;9.77;1.40;;;18.10;58.60;;;;;;4496951;31;20147;-69
2021/12/29 08:16:58;;;;;;;3.08;0.90;;;18.10;58.60;;;;;;4495650;31;20130;-68
2021/12/29 08:19:24;;;;;;;6.53;1.85;;;18.10;58.50;;;;;;4483259;31;20186;-69
2021/12/29 08:21:50;;;;;;;5.03;1.40;;;18.10;58.50;;;;;;4495672;31;20132;-67
2021/12/29 08:24:17;;;;;;;2.83;1.20;;;18.10;58.30;;;;;;4496401;31;20124;-68
2021/12/29 08:26:43;;;;;;;1.85;1.08;;;18.20;58.40;;;;;;4496046;31;20135;-67
2021/12/29 08:29:09;;;;;;;1.98;1.10;;;18.20;58.40;;;;;;4482938;31;20183;-67
2021/12/29 08:31:35;;;;;;;3.30;1.05;;;18.30;58.40;;;;;;4496562;31;20575;-67
2021/12/29 08:34:01;;;;;;;3.00;0.98;;;18.30;58.30;;;;;;4495605;31;20172;-67
2021/12/29 08:36:27;;;;;;;4.68;1.38;;;18.40;58.10;;;;;;4483434;31;20164;-67
2021/12/29 08:38:53;;;;;;;3.03;1.00;;;18.50;58.00;;;;;;4482586;31;20135;-68
2021/12/29 08:41:19;;;;;;;4.72;1.30;;;18.70;57.80;;;;;;4509222;31;20201;-67
2021/12/29 08:43:47;;;;;;;3.85;1.30;;;18.80;57.60;;;;;;4509067;31;20148;-68
2021/12/29 08:46:13;;;;;;;3.65;1.33;;;18.90;57.50;;;;;;4509787;31;20273;-70
2021/12/29 08:48:42;;;;;;;2.08;1.00;;;19.00;57.20;;;;;;4496395;31;20147;-69
2021/12/29 08:51:09;;;;;;;3.65;1.13;;;19.10;57.00;;;;;;4495627;31;20143;-68
2021/12/29 08:53:36;;;;;;;8.43;1.50;;;19.20;56.80;;;;;;4496619;31;20139;-66
2021/12/29 08:56:02;;;;;;;2.45;1.00;;;19.40;56.60;;;;;;4495680;31;20136;-70
2021/12/29 08:58:28;;;;;;;1.25;0.70;;;19.50;56.30;;;;;;4510280;31;20152;-70
2021/12/29 09:00:56;;;;;;;2.78;1.15;;;19.60;56.10;;;;;;4509095;31;20116;-70
2021/12/29 09:03:22;;;;;;;2.80;1.27;;;19.70;55.90;;;;;;4508660;31;20224;-71
2021/12/29 09:05:48;;;;;;;1.73;0.90;;;19.80;55.60;;;;;;4496438;31;20706;-70
2021/12/29 09:08:14;;;;;;;3.63;1.20;;;19.90;55.40;;;;;;4509401;31;20124;-69
2021/12/29 09:10:42;;;;;;;1.83;0.85;;;20.10;55.10;;;;;;4512376;31;20146;-70
2021/12/29 09:13:08;;;;;;;3.78;1.00;;;20.20;55.00;;;;;;4512823;31;20116;-69
2021/12/29 09:15:34;;;;;;;1.65;0.90;;;20.30;54.70;;;;;;4512183;31;20147;-70
2021/12/29 09:18:00;;;;;;;2.38;0.98;;;20.30;54.40;;;;;;4512801;31;20134;-70
2021/12/29 09:20:30;;;;;;;2.67;0.90;;;20.40;54.30;;;;;;4485124;31;20136;-69
2021/12/29 09:23:15;;;;;;;2.40;0.80;;;20.50;54.30;;;;;;4512301;31;20533;-70
2021/12/29 09:25:44;;;;;;;2.25;0.90;;;20.50;54.20;;;;;;4498176;31;20128;-69
2021/12/29 09:28:14;;;;;;;4.50;0.80;;;20.50;54.00;;;;;;4513348;31;20202;-69
2021/12/29 09:30:43;;;;;;;4.03;1.65;;;20.50;53.90;;;;;;4509670;31;20198;-70
2021/12/29 09:33:09;;;;;;;3.13;1.83;;;20.60;53.50;;;;;;4495519;31;20473;-71
2021/12/29 09:35:36;;;;;;;2.35;1.35;;;20.60;53.20;;;;;;4495855;31;20125;-72
2021/12/29 09:38:04;;;;;;;9.23;1.20;;;20.60;53.00;;;;;;4481001;31;20137;-71
2021/12/29 09:40:30;;;;;;;3.28;1.13;;;20.60;52.90;;;;;;4495790;31;20147;-70
2021/12/29 09:42:56;;;;;;;4.00;1.10;;;20.60;52.90;;;;;;4496429;31;20140;-70
2021/12/29 09:45:24;;;;;;;4.28;1.13;;;20.60;52.90;;;;;;4496999;31;20262;-70
2021/12/29 09:47:50;;;;;;;3.00;0.93;;;20.60;52.90;;;;;;4496325;31;20363;-69
2021/12/29 09:50:20;;;;;;;2.05;1.00;;;20.60;53.00;;;;;;4495255;31;20136;-68
2021/12/29 09:52:46;;;;;;;2.53;0.80;;;20.60;53.10;;;;;;4495713;31;20128;-70
2021/12/29 09:55:15;;;;;;;1.48;0.70;;;20.50;53.10;;;;;;4482348;31;20121;-70
2021/12/29 09:57:47;;;;;;;2.85;0.90;;;20.50;53.20;;;;;;4496025;31;20124;-70
2021/12/29 10:00:24;;;;;;;2.70;0.80;;;20.50;53.20;;;;;;4495105;31;20132;-70
2021/12/29 10:02:51;;;;;;;1.42;0.85;;;20.50;53.30;;;;;;4482674;31;20625;-71
2021/12/29 10:05:17;;;;;;;1.13;0.88;;;20.40;53.30;;;;;;4495205;31;20156;-70
2021/12/29 10:07:43;;;;;;;2.47;0.80;;;20.40;53.40;;;;;;4495069;31;20137;-69
2021/12/29 10:10:21;;;;;;;3.63;0.80;;;20.40;53.50;;;;;;4495709;31;20117;-69
2021/12/29 10:12:47;;;;;;;3.90;0.70;;;20.40;53.60;;;;;;4481389;31;20128;-69
2021/12/29 10:15:14;;;;;;;1.38;0.75;;;20.40;53.60;;;;;;4482632;31;20129;-70
2021/12/29 10:17:40;;;;;;;1.80;0.75;;;20.40;53.70;;;;;;4495580;31;20152;-71
2021/12/29 10:20:13;;;;;;;2.80;0.90;;;20.30;53.70;;;;;;4495005;31;20117;-69
2021/12/29 10:22:43;;;;;;;1.65;1.00;;;20.30;53.70;;;;;;4493680;31;20300;-70
2021/12/29 10:25:12;;;;;;;2.45;0.70;;;20.30;53.80;;;;;;4494783;31;20132;-71
2021/12/29 10:27:40;;;;;;;1.15;0.75;;;20.30;53.80;;;;;;4496569;31;20136;-69
2021/12/29 10:30:20;;;;;;;2.33;1.00;;;20.30;53.80;;;;;;4481467;31;20239;-69
2021/12/29 10:32:46;;;;;;;1.63;0.98;;;20.30;53.90;;;;;;4495495;31;20151;-70
2021/12/29 10:35:39;;;;;;;2.15;0.70;;;20.30;54.00;;;;;;4482136;31;20460;-70
2021/12/29 10:38:15;;;;;;;4.05;0.70;;;20.20;53.90;;;;;;4479523;31;20345;-71
2021/12/29 10:40:41;;;;;;;1.80;0.70;;;20.20;54.00;;;;;;4495256;31;20178;-70
2021/12/29 10:43:07;;;;;;;1.02;0.60;;;20.20;54.00;;;;;;4494699;31;20184;-70
2021/12/29 10:45:37;;;;;;;1.73;0.80;;;20.20;54.00;;;;;;4495073;31;20150;-71
2021/12/29 10:48:27;;;;;;;1.40;0.90;;;20.20;54.10;;;;;;4495422;31;20121;-70
2021/12/29 10:51:01;;;;;;;3.13;0.68;;;20.20;54.10;;;;;;4494241;31;20124;-70
2021/12/29 10:53:29;;;;;;;1.75;0.80;;;20.20;54.10;;;;;;4495110;31;20164;-71
2021/12/29 10:55:55;;;;;;;1.05;0.80;;;20.20;54.10;;;;;;4495165;31;20109;-70
2021/12/29 10:58:25;;;;;;;1.50;0.60;;;20.20;54.10;;;;;;4495938;31;20147;-70
2021/12/29 11:01:09;;;;;;;1.83;0.90;;;20.20;54.20;;;;;;4495596;31;20124;-71
2021/12/29 11:03:44;;;;;;;1.10;0.50;;;20.20;54.20;;;;;;4495055;31;20489;-70
2021/12/29 11:06:13;;;;;;;1.35;0.90;;;20.20;55.10;;;;;;4495081;31;20132;-71
2021/12/29 11:08:53;;;;;;;1.75;0.80;;;20.20;54.20;;;;;;4480613;31;20194;-71
2021/12/29 11:11:26;;;;;;;1.00;0.65;;;20.20;54.20;;;;;;4494866;31;20116;-70
2021/12/29 11:13:56;;;;;;;0.93;0.60;;;20.20;54.20;;;;;;4494524;31;20172;-70
2021/12/29 11:16:22;;;;;;;0.80;0.63;;;20.20;54.20;;;;;;4481548;31;20141;-70
2021/12/29 11:18:50;;;;;;;0.93;0.70;;;20.20;54.20;;;;;;4495750;31;20147;-70
2021/12/29 11:21:28;;;;;;;1.73;0.90;;;20.20;54.20;;;;;;4493826;31;20148;-70
2021/12/29 11:23:54;;;;;;;1.08;0.70;;;20.20;54.20;;;;;;4495824;31;20255;-70
2021/12/29 11:26:28;;;;;;;1.30;0.80;;;20.20;54.20;;;;;;4493992;31;20121;-70
2021/12/29 11:29:12;;;;;;;1.50;0.70;;;20.20;54.20;;;;;;4495135;31;20143;-69
2021/12/29 11:31:45;;;;;;;1.08;0.60;;;20.20;54.20;;;;;;4494405;31;20226;-70
2021/12/29 11:34:30;;;;;;;1.27;0.68;;;20.20;54.20;;;;;;4494737;31;20124;-70
2021/12/29 11:37:06;;;;;;;2.47;0.80;;;20.20;54.20;;;;;;4495441;31;20197;-67
2021/12/29 11:39:36;;;;;;;1.13;0.70;;;20.20;54.20;;;;;;4493142;31;20137;-70
2021/12/29 11:42:03;;;;;;;1.77;0.70;;;20.20;54.20;;;;;;4493979;31;20128;-68
2021/12/29 11:44:29;;;;;;;3.50;1.10;;;20.20;54.20;;;;;;4481251;31;20125;-67
2021/12/29 11:46:56;;;;;;;4.80;0.80;;;20.20;54.20;;;;;;4494621;31;20136;-68
2021/12/29 11:49:23;;;;;;;3.05;0.90;;;20.20;54.20;;;;;;4495626;31;20128;-68
2021/12/29 11:52:05;;;;;;;2.10;0.73;;;20.20;54.20;;;;;;4493315;31;20179;-64
2021/12/29 11:54:42;;;;;;;3.28;0.63;;;20.20;54.20;;;;;;4494436;31;20140;-67
2021/12/29 11:57:14;;;;;;;1.63;0.80;;;20.10;54.20;;;;;;4507514;31;20132;-68
2021/12/29 11:59:40;;;;;;;3.05;0.77;;;20.10;54.30;;;;;;4508085;31;20136;-68
2021/12/29 12:02:06;;;;;;;4.00;0.80;;;20.10;55.30;;;;;;4495155;31;20286;-68
2021/12/29 12:04:35;;;;;;;1.95;0.65;;;20.10;54.50;;;;;;4492067;31;20171;-69
2021/12/29 12:07:12;;;;;;;2.42;0.77;;;20.20;54.60;;;;;;4502129;31;20117;-66
2021/12/29 12:09:46;;;;;;;2.67;0.63;;;20.20;54.50;;;;;;4493128;31;20148;-69
2021/12/29 12:12:13;;;;;;;1.45;0.80;;;20.30;54.50;;;;;;4492893;31;20136;-67
2021/12/29 12:14:50;;;;;;;1.20;0.80;;;20.40;54.40;;;;;;4493448;31;20133;-68
2021/12/29 12:17:27;;;;;;;2.58;0.70;;;20.50;54.30;;;;;;4493678;31;20188;-67
2021/12/29 12:20:09;;;;;;;1.27;0.60;;;20.60;54.10;;;;;;4493313;31;20577;-66
2021/12/29 12:22:46;;;;;;;1.83;0.70;;;20.60;54.90;;;;;;4493818;31;20136;-67
2021/12/29 12:25:17;;;;;;;1.42;0.70;;;20.70;53.80;;;;;;4493848;31;20129;-66
2021/12/29 12:27:44;;;;;;;1.85;0.93;;;20.80;53.70;;;;;;4499761;31;20121;-65
2021/12/29 12:30:18;;;;;;;4.10;0.75;;;20.80;53.60;;;;;;4479108;31;20148;-66
2021/12/29 12:32:56;;;;;;;2.80;0.82;;;20.80;53.60;;;;;;4492366;31;20194;-66
2021/12/29 12:35:29;;;;;;;3.35;0.80;;;20.90;53.60;;;;;;4493762;31;20241;-68
2021/12/29 12:37:55;;;;;;;3.92;0.75;;;20.90;53.60;;;;;;4492395;31;20156;-67
2021/12/29 12:40:27;;;;;;;1.13;0.50;;;20.90;53.50;;;;;;4492812;31;20132;-68
2021/12/29 12:43:13;;;;;;;1.90;0.73;;;20.90;53.50;;;;;;4494141;31;20120;-70
2021/12/29 12:45:42;;;;;;;3.88;0.68;;;20.90;53.50;;;;;;4506667;31;20251;-70
2021/12/29 12:48:12;;;;;;;2.95;0.80;;;20.90;53.60;;;;;;4496939;31;20156;-70
2021/12/29 12:50:41;;;;;;;2.50;0.63;;;20.90;53.60;;;;;;4507490;31;20603;-68
2021/12/29 12:53:07;;;;;;;1.67;0.70;;;20.90;53.70;;;;;;4511586;31;20294;-69
2021/12/29 12:55:45;;;;;;;2.40;0.98;;;20.90;53.70;;;;;;4491314;31;20132;-71